sensor_id;sensor_type;location;lat;lon;timestamp;P1;durP1;ratioP1;P2;durP2;ratioP2
65863;SDS011;52639;51.180;20.460;2023-08-01T00:00:07;8.85;;;4.70;;
65863;SDS011;52639;51.180;20.460;2023-08-01T00:04:32;12.57;;;5.60;;
65863;SDS011;52639;51.180;20.460;2023-08-01T00:08:35;8.50;;;5.20;;
65863;SDS011;52639;51.180;20.460;2023-08-01T00:12:38;11.82;;;5.60;;
65863;SDS011;52639;51.180;20.460;2023-08-01T00:16:40;9.52;;;5.57;;
65863;SDS011;52639;51.180;20.460;2023-08-01T00:20:47;10.15;;;5.32;;
65863;SDS011;52639;51.180;20.460;2023-08-01T00:24:51;9.20;;;5.53;;
65863;SDS011;52639;51.180;20.460;2023-08-01T00:28:55;9.60;;;5.20;;
65863;SDS011;52639;51.180;20.460;2023-08-01T00:33:00;9.70;;;4.82;;
65863;SDS011;52639;51.180;20.460;2023-08-01T00:37:04;6.40;;;4.32;;
65863;SDS011;52639;51.180;20.460;2023-08-01T00:41:07;10.65;;;5.03;;
65863;SDS011;52639;51.180;20.460;2023-08-01T00:45:11;9.80;;;5.30;;
65863;SDS011;52639;51.180;20.460;2023-08-01T00:49:14;10.57;;;5.07;;
65863;SDS011;52639;51.180;20.460;2023-08-01T00:53:20;9.30;;;4.95;;
65863;SDS011;52639;51.180;20.460;2023-08-01T00:57:23;10.20;;;5.15;;
65863;SDS011;52639;51.180;20.460;2023-08-01T01:01:27;9.30;;;5.30;;
65863;SDS011;52639;51.180;20.460;2023-08-01T01:05:31;11.38;;;5.05;;
65863;SDS011;52639;51.180;20.460;2023-08-01T01:09:41;10.57;;;4.55;;
65863;SDS011;52639;51.180;20.460;2023-08-01T01:13:45;9.43;;;5.10;;
65863;SDS011;52639;51.180;20.460;2023-08-01T01:17:49;6.88;;;4.40;;
65863;SDS011;52639;51.180;20.460;2023-08-01T01:21:55;9.68;;;4.95;;
65863;SDS011;52639;51.180;20.460;2023-08-01T01:26:00;9.50;;;4.93;;
65863;SDS011;52639;51.180;20.460;2023-08-01T01:30:04;11.02;;;4.40;;
65863;SDS011;52639;51.180;20.460;2023-08-01T01:34:08;9.75;;;5.18;;
65863;SDS011;52639;51.180;20.460;2023-08-01T01:38:13;11.40;;;4.88;;
65863;SDS011;52639;51.180;20.460;2023-08-01T01:42:16;9.25;;;4.65;;
65863;SDS011;52639;51.180;20.460;2023-08-01T01:46:19;8.40;;;4.75;;
65863;SDS011;52639;51.180;20.460;2023-08-01T01:50:21;10.35;;;3.92;;
65863;SDS011;52639;51.180;20.460;2023-08-01T01:54:25;8.55;;;4.30;;
65863;SDS011;52639;51.180;20.460;2023-08-01T01:58:28;10.68;;;4.10;;
65863;SDS011;52639;51.180;20.460;2023-08-01T02:02:31;7.15;;;3.90;;
65863;SDS011;52639;51.180;20.460;2023-08-01T02:06:34;6.80;;;3.78;;
65863;SDS011;52639;51.180;20.460;2023-08-01T02:10:38;8.43;;;3.70;;
65863;SDS011;52639;51.180;20.460;2023-08-01T02:14:41;12.10;;;3.80;;
65863;SDS011;52639;51.180;20.460;2023-08-01T02:18:44;8.07;;;3.72;;
65863;SDS011;52639;51.180;20.460;2023-08-01T02:22:47;8.05;;;3.75;;
65863;SDS011;52639;51.180;20.460;2023-08-01T02:26:52;6.70;;;3.65;;
65863;SDS011;52639;51.180;20.460;2023-08-01T02:30:55;6.22;;;3.65;;
65863;SDS011;52639;51.180;20.460;2023-08-01T02:34:58;6.97;;;3.80;;
65863;SDS011;52639;51.180;20.460;2023-08-01T02:39:01;9.88;;;3.75;;
65863;SDS011;52639;51.180;20.460;2023-08-01T02:43:05;8.20;;;3.90;;
65863;SDS011;52639;51.180;20.460;2023-08-01T02:47:08;6.75;;;3.55;;
65863;SDS011;52639;51.180;20.460;2023-08-01T02:51:11;10.30;;;3.55;;
65863;SDS011;52639;51.180;20.460;2023-08-01T02:55:14;7.57;;;3.72;;
65863;SDS011;52639;51.180;20.460;2023-08-01T02:59:18;6.25;;;3.25;;
65863;SDS011;52639;51.180;20.460;2023-08-01T03:03:21;7.72;;;3.38;;
65863;SDS011;52639;51.180;20.460;2023-08-01T03:07:24;6.88;;;3.60;;
65863;SDS011;52639;51.180;20.460;2023-08-01T03:11:27;6.00;;;3.50;;
65863;SDS011;52639;51.180;20.460;2023-08-01T03:15:31;6.18;;;3.67;;
65863;SDS011;52639;51.180;20.460;2023-08-01T03:19:34;5.93;;;3.40;;
65863;SDS011;52639;51.180;20.460;2023-08-01T03:23:37;9.73;;;3.40;;
65863;SDS011;52639;51.180;20.460;2023-08-01T03:27:39;9.93;;;3.90;;
65863;SDS011;52639;51.180;20.460;2023-08-01T03:31:44;6.13;;;3.53;;
65863;SDS011;52639;51.180;20.460;2023-08-01T03:35:47;10.48;;;3.40;;
65863;SDS011;52639;51.180;20.460;2023-08-01T03:39:50;6.88;;;3.40;;
65863;SDS011;52639;51.180;20.460;2023-08-01T03:43:52;6.50;;;3.55;;
65863;SDS011;52639;51.180;20.460;2023-08-01T03:47:57;8.25;;;3.60;;
65863;SDS011;52639;51.180;20.460;2023-08-01T03:51:59;6.65;;;3.22;;
65863;SDS011;52639;51.180;20.460;2023-08-01T03:56:02;7.03;;;3.67;;
65863;SDS011;52639;51.180;20.460;2023-08-01T04:00:06;6.35;;;3.40;;
65863;SDS011;52639;51.180;20.460;2023-08-01T04:04:15;9.73;;;3.72;;
65863;SDS011;52639;51.180;20.460;2023-08-01T04:08:18;7.97;;;3.65;;
65863;SDS011;52639;51.180;20.460;2023-08-01T04:12:21;6.55;;;3.53;;
65863;SDS011;52639;51.180;20.460;2023-08-01T04:16:23;6.63;;;3.30;;
65863;SDS011;52639;51.180;20.460;2023-08-01T04:20:28;7.43;;;3.30;;
65863;SDS011;52639;51.180;20.460;2023-08-01T04:24:31;5.15;;;3.47;;
65863;SDS011;52639;51.180;20.460;2023-08-01T04:28:33;8.95;;;3.65;;
65863;SDS011;52639;51.180;20.460;2023-08-01T04:32:36;10.07;;;3.40;;
65863;SDS011;52639;51.180;20.460;2023-08-01T04:36:41;7.18;;;3.17;;
65863;SDS011;52639;51.180;20.460;2023-08-01T04:40:44;5.05;;;3.60;;
65863;SDS011;52639;51.180;20.460;2023-08-01T04:44:47;6.97;;;3.20;;
65863;SDS011;52639;51.180;20.460;2023-08-01T04:48:49;5.97;;;3.28;;
65863;SDS011;52639;51.180;20.460;2023-08-01T04:52:54;8.38;;;3.65;;
65863;SDS011;52639;51.180;20.460;2023-08-01T04:56:56;7.03;;;3.30;;
65863;SDS011;52639;51.180;20.460;2023-08-01T05:00:59;6.97;;;3.70;;
65863;SDS011;52639;51.180;20.460;2023-08-01T05:05:02;5.60;;;3.33;;
65863;SDS011;52639;51.180;20.460;2023-08-01T05:09:07;6.82;;;3.30;;
65863;SDS011;52639;51.180;20.460;2023-08-01T05:13:10;6.97;;;3.33;;
65863;SDS011;52639;51.180;20.460;2023-08-01T05:17:13;6.15;;;3.17;;
65863;SDS011;52639;51.180;20.460;2023-08-01T05:21:16;6.72;;;3.25;;
65863;SDS011;52639;51.180;20.460;2023-08-01T05:25:20;6.35;;;3.40;;
65863;SDS011;52639;51.180;20.460;2023-08-01T05:29:24;6.88;;;3.08;;
65863;SDS011;52639;51.180;20.460;2023-08-01T05:33:26;5.65;;;3.13;;
65863;SDS011;52639;51.180;20.460;2023-08-01T05:37:29;4.72;;;3.10;;
65863;SDS011;52639;51.180;20.460;2023-08-01T05:41:34;8.20;;;3.30;;
65863;SDS011;52639;51.180;20.460;2023-08-01T05:45:37;7.70;;;2.97;;
65863;SDS011;52639;51.180;20.460;2023-08-01T05:49:40;5.45;;;2.78;;
65863;SDS011;52639;51.180;20.460;2023-08-01T05:53:43;5.82;;;3.10;;
65863;SDS011;52639;51.180;20.460;2023-08-01T05:57:48;7.10;;;3.28;;
65863;SDS011;52639;51.180;20.460;2023-08-01T06:01:53;5.50;;;3.00;;
65863;SDS011;52639;51.180;20.460;2023-08-01T06:05:56;4.90;;;3.13;;
65863;SDS011;52639;51.180;20.460;2023-08-01T06:09:59;6.68;;;2.97;;
65863;SDS011;52639;51.180;20.460;2023-08-01T06:14:03;6.32;;;3.08;;
65863;SDS011;52639;51.180;20.460;2023-08-01T06:18:06;4.30;;;2.92;;
65863;SDS011;52639;51.180;20.460;2023-08-01T06:22:09;4.20;;;3.00;;
65863;SDS011;52639;51.180;20.460;2023-08-01T06:26:12;10.93;;;3.13;;
65863;SDS011;52639;51.180;20.460;2023-08-01T06:30:17;4.68;;;3.00;;
65863;SDS011;52639;51.180;20.460;2023-08-01T06:34:20;5.15;;;2.90;;
65863;SDS011;52639;51.180;20.460;2023-08-01T06:38:23;5.35;;;3.10;;
65863;SDS011;52639;51.180;20.460;2023-08-01T06:42:26;6.72;;;3.13;;
65863;SDS011;52639;51.180;20.460;2023-08-01T06:46:31;8.48;;;3.38;;
65863;SDS011;52639;51.180;20.460;2023-08-01T06:50:34;6.78;;;2.60;;
65863;SDS011;52639;51.180;20.460;2023-08-01T06:54:36;4.80;;;2.80;;
65863;SDS011;52639;51.180;20.460;2023-08-01T06:58:40;4.72;;;2.80;;
65863;SDS011;52639;51.180;20.460;2023-08-01T07:02:44;6.18;;;2.72;;
65863;SDS011;52639;51.180;20.460;2023-08-01T07:06:47;6.00;;;2.90;;
65863;SDS011;52639;51.180;20.460;2023-08-01T07:10:50;5.82;;;2.90;;
65863;SDS011;52639;51.180;20.460;2023-08-01T07:14:53;5.65;;;2.85;;
65863;SDS011;52639;51.180;20.460;2023-08-01T07:19:00;7.22;;;2.90;;
65863;SDS011;52639;51.180;20.460;2023-08-01T07:23:03;6.78;;;3.08;;
65863;SDS011;52639;51.180;20.460;2023-08-01T07:27:06;5.72;;;2.70;;
65863;SDS011;52639;51.180;20.460;2023-08-01T07:31:09;6.85;;;2.80;;
65863;SDS011;52639;51.180;20.460;2023-08-01T07:35:14;5.55;;;2.85;;
65863;SDS011;52639;51.180;20.460;2023-08-01T07:39:17;7.55;;;3.10;;
65863;SDS011;52639;51.180;20.460;2023-08-01T07:43:25;7.50;;;3.13;;
65863;SDS011;52639;51.180;20.460;2023-08-01T07:47:28;6.88;;;3.05;;
65863;SDS011;52639;51.180;20.460;2023-08-01T07:51:33;3.97;;;2.60;;
65863;SDS011;52639;51.180;20.460;2023-08-01T07:55:36;5.05;;;2.75;;
65863;SDS011;52639;51.180;20.460;2023-08-01T07:59:41;5.35;;;2.60;;
65863;SDS011;52639;51.180;20.460;2023-08-01T08:03:44;5.63;;;3.00;;
65863;SDS011;52639;51.180;20.460;2023-08-01T08:07:49;4.75;;;2.67;;
65863;SDS011;52639;51.180;20.460;2023-08-01T08:11:52;5.80;;;2.60;;
65863;SDS011;52639;51.180;20.460;2023-08-01T08:15:58;6.30;;;2.70;;
65863;SDS011;52639;51.180;20.460;2023-08-01T08:20:06;5.90;;;2.85;;
65863;SDS011;52639;51.180;20.460;2023-08-01T08:24:13;5.90;;;2.53;;
65863;SDS011;52639;51.180;20.460;2023-08-01T08:28:27;5.03;;;2.95;;
65863;SDS011;52639;51.180;20.460;2023-08-01T08:32:30;4.43;;;2.70;;
65863;SDS011;52639;51.180;20.460;2023-08-01T08:36:33;4.28;;;2.65;;
65863;SDS011;52639;51.180;20.460;2023-08-01T08:40:39;4.55;;;2.55;;
65863;SDS011;52639;51.180;20.460;2023-08-01T08:44:45;4.65;;;2.55;;
65863;SDS011;52639;51.180;20.460;2023-08-01T08:48:52;5.97;;;2.60;;
65863;SDS011;52639;51.180;20.460;2023-08-01T08:52:55;6.00;;;2.88;;
65863;SDS011;52639;51.180;20.460;2023-08-01T08:57:00;3.80;;;2.40;;
65863;SDS011;52639;51.180;20.460;2023-08-01T09:01:05;3.88;;;2.50;;
65863;SDS011;52639;51.180;20.460;2023-08-01T09:05:09;4.47;;;2.30;;
65863;SDS011;52639;51.180;20.460;2023-08-01T09:09:12;6.70;;;2.38;;
65863;SDS011;52639;51.180;20.460;2023-08-01T09:13:17;3.95;;;2.50;;
65863;SDS011;52639;51.180;20.460;2023-08-01T09:17:20;5.57;;;2.45;;
65863;SDS011;52639;51.180;20.460;2023-08-01T09:21:23;4.70;;;2.83;;
65863;SDS011;52639;51.180;20.460;2023-08-01T09:25:33;5.70;;;2.85;;
65863;SDS011;52639;51.180;20.460;2023-08-01T09:29:37;5.53;;;2.50;;
65863;SDS011;52639;51.180;20.460;2023-08-01T09:33:40;5.43;;;2.40;;
65863;SDS011;52639;51.180;20.460;2023-08-01T09:37:43;5.22;;;2.47;;
65863;SDS011;52639;51.180;20.460;2023-08-01T09:41:52;4.07;;;2.40;;
65863;SDS011;52639;51.180;20.460;2023-08-01T09:50:01;6.43;;;2.72;;
65863;SDS011;52639;51.180;20.460;2023-08-01T09:54:04;8.98;;;2.83;;
65863;SDS011;52639;51.180;20.460;2023-08-01T09:58:07;4.18;;;2.40;;
65863;SDS011;52639;51.180;20.460;2023-08-01T10:02:14;6.28;;;2.13;;
65863;SDS011;52639;51.180;20.460;2023-08-01T10:06:18;11.35;;;6.80;;
65863;SDS011;52639;51.180;20.460;2023-08-01T10:10:22;10.73;;;7.25;;
65863;SDS011;52639;51.180;20.460;2023-08-01T10:14:26;18.48;;;11.80;;
65863;SDS011;52639;51.180;20.460;2023-08-01T10:18:31;8.15;;;3.60;;
65863;SDS011;52639;51.180;20.460;2023-08-01T10:22:38;8.18;;;6.68;;
65863;SDS011;52639;51.180;20.460;2023-08-01T10:26:44;8.52;;;4.43;;
65863;SDS011;52639;51.180;20.460;2023-08-01T10:30:47;13.95;;;3.90;;
65863;SDS011;52639;51.180;20.460;2023-08-01T10:34:54;5.60;;;3.50;;
65863;SDS011;52639;51.180;20.460;2023-08-01T10:38:57;10.80;;;3.15;;
65863;SDS011;52639;51.180;20.460;2023-08-01T10:43:01;5.05;;;3.00;;
65863;SDS011;52639;51.180;20.460;2023-08-01T10:47:04;6.25;;;3.25;;
65863;SDS011;52639;51.180;20.460;2023-08-01T10:51:09;8.32;;;3.22;;
65863;SDS011;52639;51.180;20.460;2023-08-01T10:55:11;4.57;;;2.92;;
65863;SDS011;52639;51.180;20.460;2023-08-01T10:59:15;6.70;;;3.50;;
65863;SDS011;52639;51.180;20.460;2023-08-01T11:03:18;8.23;;;5.07;;
65863;SDS011;52639;51.180;20.460;2023-08-01T11:07:23;8.63;;;4.03;;
65863;SDS011;52639;51.180;20.460;2023-08-01T11:11:25;6.28;;;3.10;;
65863;SDS011;52639;51.180;20.460;2023-08-01T11:15:28;6.15;;;3.28;;
65863;SDS011;52639;51.180;20.460;2023-08-01T11:19:31;6.55;;;3.45;;
65863;SDS011;52639;51.180;20.460;2023-08-01T11:23:35;7.18;;;3.25;;
65863;SDS011;52639;51.180;20.460;2023-08-01T11:27:38;6.63;;;3.42;;
65863;SDS011;52639;51.180;20.460;2023-08-01T11:31:46;6.10;;;2.95;;
65863;SDS011;52639;51.180;20.460;2023-08-01T11:35:55;5.47;;;2.80;;
65863;SDS011;52639;51.180;20.460;2023-08-01T11:40:01;3.88;;;2.55;;
65863;SDS011;52639;51.180;20.460;2023-08-01T11:44:05;5.40;;;2.97;;
65863;SDS011;52639;51.180;20.460;2023-08-01T11:48:09;5.15;;;3.10;;
65863;SDS011;52639;51.180;20.460;2023-08-01T11:52:22;5.00;;;3.40;;
65863;SDS011;52639;51.180;20.460;2023-08-01T11:56:27;5.50;;;3.35;;
65863;SDS011;52639;51.180;20.460;2023-08-01T12:00:31;6.95;;;3.42;;
65863;SDS011;52639;51.180;20.460;2023-08-01T12:04:34;6.07;;;3.40;;
65863;SDS011;52639;51.180;20.460;2023-08-01T12:08:37;9.63;;;3.55;;
65863;SDS011;52639;51.180;20.460;2023-08-01T12:12:44;6.00;;;3.20;;
65863;SDS011;52639;51.180;20.460;2023-08-01T12:16:48;5.93;;;3.50;;
65863;SDS011;52639;51.180;20.460;2023-08-01T12:20:50;5.40;;;3.28;;
65863;SDS011;52639;51.180;20.460;2023-08-01T12:24:54;6.15;;;3.17;;
65863;SDS011;52639;51.180;20.460;2023-08-01T12:29:00;6.85;;;3.30;;
65863;SDS011;52639;51.180;20.460;2023-08-01T12:33:03;7.70;;;3.55;;
65863;SDS011;52639;51.180;20.460;2023-08-01T12:37:06;6.45;;;3.60;;
65863;SDS011;52639;51.180;20.460;2023-08-01T12:41:09;5.43;;;3.80;;
65863;SDS011;52639;51.180;20.460;2023-08-01T12:45:14;6.45;;;3.55;;
65863;SDS011;52639;51.180;20.460;2023-08-01T12:49:17;5.75;;;3.58;;
65863;SDS011;52639;51.180;20.460;2023-08-01T12:53:21;6.65;;;3.85;;
65863;SDS011;52639;51.180;20.460;2023-08-01T12:57:28;7.03;;;3.70;;
65863;SDS011;52639;51.180;20.460;2023-08-01T13:01:32;6.65;;;3.70;;
65863;SDS011;52639;51.180;20.460;2023-08-01T13:05:35;7.55;;;3.83;;
65863;SDS011;52639;51.180;20.460;2023-08-01T13:09:43;7.53;;;3.45;;
65863;SDS011;52639;51.180;20.460;2023-08-01T13:13:49;7.32;;;4.03;;
65863;SDS011;52639;51.180;20.460;2023-08-01T13:17:54;6.30;;;3.78;;
65863;SDS011;52639;51.180;20.460;2023-08-01T13:21:58;7.32;;;4.28;;
65863;SDS011;52639;51.180;20.460;2023-08-01T13:26:02;5.97;;;4.00;;
65863;SDS011;52639;51.180;20.460;2023-08-01T13:30:06;7.38;;;4.45;;
65863;SDS011;52639;51.180;20.460;2023-08-01T13:34:17;7.95;;;4.68;;
65863;SDS011;52639;51.180;20.460;2023-08-01T13:38:22;9.05;;;4.10;;
65863;SDS011;52639;51.180;20.460;2023-08-01T13:42:26;6.32;;;4.20;;
65863;SDS011;52639;51.180;20.460;2023-08-01T13:46:31;7.20;;;4.35;;
65863;SDS011;52639;51.180;20.460;2023-08-01T13:50:36;7.63;;;3.80;;
65863;SDS011;52639;51.180;20.460;2023-08-01T13:54:45;6.13;;;4.00;;
65863;SDS011;52639;51.180;20.460;2023-08-01T13:58:53;6.55;;;4.13;;
65863;SDS011;52639;51.180;20.460;2023-08-01T14:02:57;6.88;;;4.00;;
65863;SDS011;52639;51.180;20.460;2023-08-01T14:07:02;6.05;;;4.38;;
65863;SDS011;52639;51.180;20.460;2023-08-01T14:11:07;6.75;;;4.25;;
65863;SDS011;52639;51.180;20.460;2023-08-01T14:15:12;6.90;;;4.35;;
65863;SDS011;52639;51.180;20.460;2023-08-01T14:19:15;7.05;;;4.22;;
65863;SDS011;52639;51.180;20.460;2023-08-01T14:23:22;11.18;;;3.83;;
65863;SDS011;52639;51.180;20.460;2023-08-01T14:27:25;6.00;;;4.15;;
65863;SDS011;52639;51.180;20.460;2023-08-01T14:31:28;6.00;;;3.95;;
65863;SDS011;52639;51.180;20.460;2023-08-01T14:35:31;6.28;;;3.78;;
65863;SDS011;52639;51.180;20.460;2023-08-01T14:39:36;5.65;;;3.58;;
65863;SDS011;52639;51.180;20.460;2023-08-01T14:43:39;6.00;;;3.63;;
65863;SDS011;52639;51.180;20.460;2023-08-01T14:47:42;5.30;;;3.05;;
65863;SDS011;52639;51.180;20.460;2023-08-01T14:51:45;5.85;;;3.38;;
65863;SDS011;52639;51.180;20.460;2023-08-01T14:55:57;4.82;;;3.20;;
65863;SDS011;52639;51.180;20.460;2023-08-01T15:00:00;5.47;;;3.17;;
65863;SDS011;52639;51.180;20.460;2023-08-01T15:04:04;4.88;;;3.10;;
65863;SDS011;52639;51.180;20.460;2023-08-01T15:08:07;4.35;;;3.10;;
65863;SDS011;52639;51.180;20.460;2023-08-01T15:12:12;5.43;;;3.15;;
65863;SDS011;52639;51.180;20.460;2023-08-01T15:16:15;6.63;;;3.30;;
65863;SDS011;52639;51.180;20.460;2023-08-01T15:20:18;7.38;;;3.47;;
65863;SDS011;52639;51.180;20.460;2023-08-01T15:24:21;6.03;;;3.70;;
65863;SDS011;52639;51.180;20.460;2023-08-01T15:28:25;5.95;;;3.45;;
65863;SDS011;52639;51.180;20.460;2023-08-01T15:32:29;5.82;;;3.63;;
65863;SDS011;52639;51.180;20.460;2023-08-01T15:36:33;5.20;;;3.22;;
65863;SDS011;52639;51.180;20.460;2023-08-01T15:40:37;5.85;;;3.00;;
65863;SDS011;52639;51.180;20.460;2023-08-01T15:44:41;7.38;;;3.25;;
65863;SDS011;52639;51.180;20.460;2023-08-01T15:48:44;4.78;;;3.05;;
65863;SDS011;52639;51.180;20.460;2023-08-01T15:52:47;5.20;;;2.90;;
65863;SDS011;52639;51.180;20.460;2023-08-01T15:56:50;4.88;;;2.80;;
65863;SDS011;52639;51.180;20.460;2023-08-01T16:00:56;4.95;;;3.10;;
65863;SDS011;52639;51.180;20.460;2023-08-01T16:05:00;3.97;;;2.60;;
65863;SDS011;52639;51.180;20.460;2023-08-01T16:09:04;7.35;;;3.50;;
65863;SDS011;52639;51.180;20.460;2023-08-01T16:13:08;4.70;;;3.20;;
65863;SDS011;52639;51.180;20.460;2023-08-01T16:17:13;4.95;;;2.78;;
65863;SDS011;52639;51.180;20.460;2023-08-01T16:21:16;5.63;;;3.22;;
65863;SDS011;52639;51.180;20.460;2023-08-01T16:25:21;6.82;;;2.95;;
65863;SDS011;52639;51.180;20.460;2023-08-01T16:29:24;5.82;;;3.08;;
65863;SDS011;52639;51.180;20.460;2023-08-01T16:33:30;6.72;;;3.80;;
65863;SDS011;52639;51.180;20.460;2023-08-01T16:37:34;4.60;;;3.17;;
65863;SDS011;52639;51.180;20.460;2023-08-01T16:41:38;6.38;;;3.33;;
65863;SDS011;52639;51.180;20.460;2023-08-01T16:45:41;5.53;;;3.22;;
65863;SDS011;52639;51.180;20.460;2023-08-01T16:49:47;5.70;;;3.10;;
65863;SDS011;52639;51.180;20.460;2023-08-01T16:53:51;6.43;;;3.10;;
65863;SDS011;52639;51.180;20.460;2023-08-01T16:57:55;5.20;;;3.10;;
65863;SDS011;52639;51.180;20.460;2023-08-01T17:01:59;5.13;;;3.17;;
65863;SDS011;52639;51.180;20.460;2023-08-01T17:06:07;6.05;;;3.10;;
65863;SDS011;52639;51.180;20.460;2023-08-01T17:10:12;6.00;;;3.40;;
65863;SDS011;52639;51.180;20.460;2023-08-01T17:14:16;5.72;;;3.38;;
65863;SDS011;52639;51.180;20.460;2023-08-01T17:18:19;6.18;;;3.08;;
65863;SDS011;52639;51.180;20.460;2023-08-01T17:22:24;8.75;;;3.30;;
65863;SDS011;52639;51.180;20.460;2023-08-01T17:26:30;6.10;;;3.40;;
65863;SDS011;52639;51.180;20.460;2023-08-01T17:30:38;6.88;;;3.60;;
65863;SDS011;52639;51.180;20.460;2023-08-01T17:34:41;6.88;;;3.33;;
65863;SDS011;52639;51.180;20.460;2023-08-01T17:38:51;5.70;;;3.20;;
65863;SDS011;52639;51.180;20.460;2023-08-01T17:42:54;5.25;;;3.40;;
65863;SDS011;52639;51.180;20.460;2023-08-01T17:47:00;5.55;;;3.20;;
65863;SDS011;52639;51.180;20.460;2023-08-01T17:51:05;6.05;;;2.92;;
65863;SDS011;52639;51.180;20.460;2023-08-01T17:55:11;6.22;;;3.47;;
65863;SDS011;52639;51.180;20.460;2023-08-01T17:59:15;4.75;;;3.28;;
65863;SDS011;52639;51.180;20.460;2023-08-01T18:03:19;6.55;;;3.20;;
65863;SDS011;52639;51.180;20.460;2023-08-01T18:07:23;5.53;;;3.38;;
65863;SDS011;52639;51.180;20.460;2023-08-01T18:11:26;6.75;;;3.40;;
65863;SDS011;52639;51.180;20.460;2023-08-01T18:15:36;5.95;;;3.28;;
65863;SDS011;52639;51.180;20.460;2023-08-01T18:19:41;6.05;;;3.50;;
65863;SDS011;52639;51.180;20.460;2023-08-01T18:23:48;7.00;;;3.85;;
65863;SDS011;52639;51.180;20.460;2023-08-01T18:27:59;5.47;;;3.58;;
65863;SDS011;52639;51.180;20.460;2023-08-01T18:32:07;5.90;;;3.70;;
65863;SDS011;52639;51.180;20.460;2023-08-01T18:36:15;6.32;;;3.47;;
65863;SDS011;52639;51.180;20.460;2023-08-01T18:40:27;7.88;;;3.80;;
65863;SDS011;52639;51.180;20.460;2023-08-01T18:44:36;7.05;;;3.65;;
65863;SDS011;52639;51.180;20.460;2023-08-01T18:48:40;5.55;;;3.80;;
65863;SDS011;52639;51.180;20.460;2023-08-01T18:52:45;5.53;;;3.40;;
65863;SDS011;52639;51.180;20.460;2023-08-01T18:56:56;5.28;;;3.38;;
65863;SDS011;52639;51.180;20.460;2023-08-01T19:01:11;6.97;;;3.58;;
65863;SDS011;52639;51.180;20.460;2023-08-01T19:05:18;5.93;;;3.53;;
65863;SDS011;52639;51.180;20.460;2023-08-01T19:09:29;6.55;;;3.70;;
65863;SDS011;52639;51.180;20.460;2023-08-01T19:13:33;7.20;;;3.80;;
65863;SDS011;52639;51.180;20.460;2023-08-01T19:17:38;6.82;;;4.00;;
65863;SDS011;52639;51.180;20.460;2023-08-01T19:21:43;5.93;;;3.28;;
65863;SDS011;52639;51.180;20.460;2023-08-01T19:25:46;9.77;;;3.97;;
65863;SDS011;52639;51.180;20.460;2023-08-01T19:29:51;12.13;;;6.38;;
65863;SDS011;52639;51.180;20.460;2023-08-01T19:33:59;9.07;;;6.47;;
65863;SDS011;52639;51.180;20.460;2023-08-01T19:38:04;8.35;;;5.45;;
65863;SDS011;52639;51.180;20.460;2023-08-01T19:42:09;8.63;;;5.07;;
65863;SDS011;52639;51.180;20.460;2023-08-01T19:46:14;7.25;;;4.38;;
65863;SDS011;52639;51.180;20.460;2023-08-01T19:50:20;8.27;;;4.05;;
65863;SDS011;52639;51.180;20.460;2023-08-01T19:54:26;5.97;;;3.70;;
65863;SDS011;52639;51.180;20.460;2023-08-01T19:58:32;6.45;;;3.80;;
65863;SDS011;52639;51.180;20.460;2023-08-01T20:02:35;5.93;;;3.65;;
65863;SDS011;52639;51.180;20.460;2023-08-01T20:06:42;7.45;;;4.70;;
65863;SDS011;52639;51.180;20.460;2023-08-01T20:10:47;6.57;;;4.03;;
65863;SDS011;52639;51.180;20.460;2023-08-01T20:14:57;7.82;;;4.43;;
65863;SDS011;52639;51.180;20.460;2023-08-01T20:19:02;7.78;;;5.45;;
65863;SDS011;52639;51.180;20.460;2023-08-01T20:23:08;8.82;;;6.07;;
65863;SDS011;52639;51.180;20.460;2023-08-01T20:27:12;8.05;;;4.20;;
65863;SDS011;52639;51.180;20.460;2023-08-01T20:31:16;6.50;;;4.05;;
65863;SDS011;52639;51.180;20.460;2023-08-01T20:35:19;5.90;;;3.72;;
65863;SDS011;52639;51.180;20.460;2023-08-01T20:39:25;5.47;;;3.50;;
65863;SDS011;52639;51.180;20.460;2023-08-01T20:43:31;6.43;;;3.83;;
65863;SDS011;52639;51.180;20.460;2023-08-01T20:47:35;7.07;;;4.03;;
65863;SDS011;52639;51.180;20.460;2023-08-01T20:51:39;7.25;;;3.63;;
65863;SDS011;52639;51.180;20.460;2023-08-01T20:55:44;7.43;;;3.95;;
65863;SDS011;52639;51.180;20.460;2023-08-01T20:59:48;6.30;;;3.65;;
65863;SDS011;52639;51.180;20.460;2023-08-01T21:03:52;6.65;;;4.15;;
65863;SDS011;52639;51.180;20.460;2023-08-01T21:07:54;5.20;;;3.42;;
65863;SDS011;52639;51.180;20.460;2023-08-01T21:11:59;8.38;;;3.70;;
65863;SDS011;52639;51.180;20.460;2023-08-01T21:16:09;5.88;;;3.17;;
65863;SDS011;52639;51.180;20.460;2023-08-01T21:20:13;5.30;;;3.57;;
65863;SDS011;52639;51.180;20.460;2023-08-01T21:24:17;6.18;;;3.28;;
65863;SDS011;52639;51.180;20.460;2023-08-01T21:28:22;9.10;;;3.50;;
65863;SDS011;52639;51.180;20.460;2023-08-01T21:32:24;5.82;;;3.58;;
65863;SDS011;52639;51.180;20.460;2023-08-01T21:36:27;9.82;;;3.63;;
65863;SDS011;52639;51.180;20.460;2023-08-01T21:40:30;6.93;;;3.60;;
65863;SDS011;52639;51.180;20.460;2023-08-01T21:44:40;5.78;;;3.75;;
65863;SDS011;52639;51.180;20.460;2023-08-01T21:48:43;7.90;;;3.15;;
65863;SDS011;52639;51.180;20.460;2023-08-01T21:52:46;6.18;;;3.67;;
65863;SDS011;52639;51.180;20.460;2023-08-01T21:56:49;8.13;;;3.75;;
65863;SDS011;52639;51.180;20.460;2023-08-01T22:00:53;7.45;;;3.60;;
65863;SDS011;52639;51.180;20.460;2023-08-01T22:04:56;7.43;;;3.85;;
65863;SDS011;52639;51.180;20.460;2023-08-01T22:08:59;8.52;;;3.92;;
65863;SDS011;52639;51.180;20.460;2023-08-01T22:13:02;9.75;;;3.97;;
65863;SDS011;52639;51.180;20.460;2023-08-01T22:17:06;7.10;;;3.80;;
65863;SDS011;52639;51.180;20.460;2023-08-01T22:21:09;7.72;;;3.75;;
65863;SDS011;52639;51.180;20.460;2023-08-01T22:25:12;6.63;;;3.78;;
65863;SDS011;52639;51.180;20.460;2023-08-01T22:29:15;5.22;;;3.47;;
65863;SDS011;52639;51.180;20.460;2023-08-01T22:33:20;6.05;;;3.45;;
65863;SDS011;52639;51.180;20.460;2023-08-01T22:37:23;8.82;;;3.67;;
65863;SDS011;52639;51.180;20.460;2023-08-01T22:41:26;7.22;;;3.55;;
65863;SDS011;52639;51.180;20.460;2023-08-01T22:45:29;8.15;;;3.88;;
65863;SDS011;52639;51.180;20.460;2023-08-01T22:49:34;7.97;;;3.90;;
65863;SDS011;52639;51.180;20.460;2023-08-01T22:53:37;7.53;;;3.70;;
65863;SDS011;52639;51.180;20.460;2023-08-01T22:57:41;7.07;;;4.32;;
65863;SDS011;52639;51.180;20.460;2023-08-01T23:01:44;7.53;;;3.92;;
65863;SDS011;52639;51.180;20.460;2023-08-01T23:05:49;10.35;;;5.28;;
65863;SDS011;52639;51.180;20.460;2023-08-01T23:09:52;6.72;;;4.03;;
65863;SDS011;52639;51.180;20.460;2023-08-01T23:14:00;10.45;;;4.95;;
65863;SDS011;52639;51.180;20.460;2023-08-01T23:18:03;7.10;;;3.90;;
65863;SDS011;52639;51.180;20.460;2023-08-01T23:22:08;9.25;;;4.13;;
65863;SDS011;52639;51.180;20.460;2023-08-01T23:26:11;6.60;;;4.00;;
65863;SDS011;52639;51.180;20.460;2023-08-01T23:30:14;7.85;;;4.32;;
65863;SDS011;52639;51.180;20.460;2023-08-01T23:34:17;8.95;;;4.10;;
65863;SDS011;52639;51.180;20.460;2023-08-01T23:38:22;7.97;;;4.10;;
65863;SDS011;52639;51.180;20.460;2023-08-01T23:42:25;11.43;;;4.40;;
65863;SDS011;52639;51.180;20.460;2023-08-01T23:46:28;7.00;;;4.03;;
65863;SDS011;52639;51.180;20.460;2023-08-01T23:50:31;9.65;;;4.93;;
65863;SDS011;52639;51.180;20.460;2023-08-01T23:54:36;8.13;;;4.72;;
65863;SDS011;52639;51.180;20.460;2023-08-01T23:58:39;8.50;;;4.80;;
